sensor_id;sensor_type;location;lat;lon;timestamp;P1;durP1;ratioP1;P2;durP2;ratioP2
81934;SDS011;71405;47.674;-2.050;2024-02-28T00:00:25;8.88;;;4.20;;
81934;SDS011;71405;47.674;-2.050;2024-02-28T00:02:51;9.07;;;5.00;;
81934;SDS011;71405;47.674;-2.050;2024-02-28T00:05:16;10.55;;;4.72;;
81934;SDS011;71405;47.674;-2.050;2024-02-28T00:07:42;9.82;;;5.30;;
81934;SDS011;71405;47.674;-2.050;2024-02-28T00:10:08;9.48;;;4.90;;
81934;SDS011;71405;47.674;-2.050;2024-02-28T00:12:34;10.45;;;4.95;;
81934;SDS011;71405;47.674;-2.050;2024-02-28T00:15:00;10.45;;;5.13;;
81934;SDS011;71405;47.674;-2.050;2024-02-28T00:17:26;11.00;;;5.05;;
81934;SDS011;71405;47.674;-2.050;2024-02-28T00:19:51;9.25;;;5.18;;
81934;SDS011;71405;47.674;-2.050;2024-02-28T00:22:17;8.60;;;4.55;;
81934;SDS011;71405;47.674;-2.050;2024-02-28T00:24:43;10.07;;;4.78;;
81934;SDS011;71405;47.674;-2.050;2024-02-28T00:27:09;9.50;;;4.53;;
81934;SDS011;71405;47.674;-2.050;2024-02-28T00:29:35;8.77;;;4.57;;
81934;SDS011;71405;47.674;-2.050;2024-02-28T00:32:01;9.10;;;4.70;;
81934;SDS011;71405;47.674;-2.050;2024-02-28T00:34:27;9.88;;;4.93;;
81934;SDS011;71405;47.674;-2.050;2024-02-28T00:36:53;7.50;;;4.15;;
81934;SDS011;71405;47.674;-2.050;2024-02-28T00:39:18;8.77;;;4.45;;
81934;SDS011;71405;47.674;-2.050;2024-02-28T00:41:44;8.32;;;4.22;;
81934;SDS011;71405;47.674;-2.050;2024-02-28T00:44:09;9.20;;;4.72;;
81934;SDS011;71405;47.674;-2.050;2024-02-28T00:46:36;7.93;;;4.20;;
81934;SDS011;71405;47.674;-2.050;2024-02-28T00:49:01;9.00;;;4.18;;
81934;SDS011;71405;47.674;-2.050;2024-02-28T00:51:27;9.35;;;4.57;;
81934;SDS011;71405;47.674;-2.050;2024-02-28T00:53:53;8.20;;;4.35;;
81934;SDS011;71405;47.674;-2.050;2024-02-28T00:56:18;10.05;;;4.88;;
81934;SDS011;71405;47.674;-2.050;2024-02-28T00:58:44;9.32;;;4.40;;
81934;SDS011;71405;47.674;-2.050;2024-02-28T01:01:10;9.30;;;5.20;;
81934;SDS011;71405;47.674;-2.050;2024-02-28T01:03:36;8.73;;;4.00;;
81934;SDS011;71405;47.674;-2.050;2024-02-28T01:06:02;8.90;;;4.60;;
81934;SDS011;71405;47.674;-2.050;2024-02-28T01:08:29;8.98;;;4.15;;
81934;SDS011;71405;47.674;-2.050;2024-02-28T01:10:54;8.80;;;4.47;;
81934;SDS011;71405;47.674;-2.050;2024-02-28T01:13:20;8.52;;;4.20;;
81934;SDS011;71405;47.674;-2.050;2024-02-28T01:15:46;8.75;;;4.65;;
81934;SDS011;71405;47.674;-2.050;2024-02-28T01:18:12;9.52;;;4.25;;
81934;SDS011;71405;47.674;-2.050;2024-02-28T01:20:37;9.63;;;4.95;;
81934;SDS011;71405;47.674;-2.050;2024-02-28T01:23:03;8.65;;;4.72;;
81934;SDS011;71405;47.674;-2.050;2024-02-28T01:25:29;10.52;;;5.10;;
81934;SDS011;71405;47.674;-2.050;2024-02-28T01:27:56;9.13;;;4.70;;
81934;SDS011;71405;47.674;-2.050;2024-02-28T01:30:24;8.30;;;4.30;;
81934;SDS011;71405;47.674;-2.050;2024-02-28T01:32:50;8.73;;;4.70;;
81934;SDS011;71405;47.674;-2.050;2024-02-28T01:35:16;8.82;;;4.20;;
81934;SDS011;71405;47.674;-2.050;2024-02-28T01:37:42;7.93;;;4.40;;
81934;SDS011;71405;47.674;-2.050;2024-02-28T01:40:08;8.07;;;4.28;;
81934;SDS011;71405;47.674;-2.050;2024-02-28T01:42:34;9.50;;;4.88;;
81934;SDS011;71405;47.674;-2.050;2024-02-28T01:45:00;8.88;;;4.40;;
81934;SDS011;71405;47.674;-2.050;2024-02-28T01:47:26;8.05;;;4.32;;
81934;SDS011;71405;47.674;-2.050;2024-02-28T01:49:51;8.57;;;4.22;;
81934;SDS011;71405;47.674;-2.050;2024-02-28T01:52:19;9.05;;;4.57;;
81934;SDS011;71405;47.674;-2.050;2024-02-28T01:54:45;8.35;;;4.07;;
81934;SDS011;71405;47.674;-2.050;2024-02-28T01:57:11;8.95;;;4.43;;
81934;SDS011;71405;47.674;-2.050;2024-02-28T01:59:38;8.38;;;4.25;;
81934;SDS011;71405;47.674;-2.050;2024-02-28T02:02:03;9.40;;;4.88;;
81934;SDS011;71405;47.674;-2.050;2024-02-28T02:04:29;8.10;;;4.30;;
81934;SDS011;71405;47.674;-2.050;2024-02-28T02:06:55;9.25;;;4.30;;
81934;SDS011;71405;47.674;-2.050;2024-02-28T02:09:23;8.48;;;3.97;;
81934;SDS011;71405;47.674;-2.050;2024-02-28T02:11:50;9.27;;;4.40;;
81934;SDS011;71405;47.674;-2.050;2024-02-28T02:14:16;9.05;;;4.30;;
81934;SDS011;71405;47.674;-2.050;2024-02-28T02:16:41;8.38;;;4.20;;
81934;SDS011;71405;47.674;-2.050;2024-02-28T02:19:08;7.20;;;4.00;;
81934;SDS011;71405;47.674;-2.050;2024-02-28T02:21:41;6.72;;;3.63;;
81934;SDS011;71405;47.674;-2.050;2024-02-28T02:24:15;6.82;;;3.60;;
81934;SDS011;71405;47.674;-2.050;2024-02-28T02:26:41;8.23;;;4.13;;
81934;SDS011;71405;47.674;-2.050;2024-02-28T02:29:09;7.40;;;3.63;;
81934;SDS011;71405;47.674;-2.050;2024-02-28T02:31:34;7.80;;;3.88;;
81934;SDS011;71405;47.674;-2.050;2024-02-28T02:34:00;7.88;;;3.90;;
81934;SDS011;71405;47.674;-2.050;2024-02-28T02:36:26;7.13;;;3.72;;
81934;SDS011;71405;47.674;-2.050;2024-02-28T02:38:52;7.95;;;3.92;;
81934;SDS011;71405;47.674;-2.050;2024-02-28T02:41:17;7.78;;;3.60;;
81934;SDS011;71405;47.674;-2.050;2024-02-28T02:43:43;8.02;;;3.92;;
81934;SDS011;71405;47.674;-2.050;2024-02-28T02:46:09;7.95;;;3.70;;
81934;SDS011;71405;47.674;-2.050;2024-02-28T02:48:35;7.18;;;3.75;;
81934;SDS011;71405;47.674;-2.050;2024-02-28T02:51:01;7.97;;;3.80;;
81934;SDS011;71405;47.674;-2.050;2024-02-28T02:53:27;8.48;;;4.00;;
81934;SDS011;71405;47.674;-2.050;2024-02-28T02:55:53;7.68;;;3.88;;
81934;SDS011;71405;47.674;-2.050;2024-02-28T02:58:19;7.80;;;4.00;;
81934;SDS011;71405;47.674;-2.050;2024-02-28T03:00:44;7.95;;;3.70;;
81934;SDS011;71405;47.674;-2.050;2024-02-28T03:03:10;7.40;;;3.45;;
81934;SDS011;71405;47.674;-2.050;2024-02-28T03:05:36;8.13;;;3.58;;
81934;SDS011;71405;47.674;-2.050;2024-02-28T03:08:01;7.30;;;3.92;;
81934;SDS011;71405;47.674;-2.050;2024-02-28T03:10:27;7.22;;;3.60;;
81934;SDS011;71405;47.674;-2.050;2024-02-28T03:12:53;7.13;;;3.17;;
81934;SDS011;71405;47.674;-2.050;2024-02-28T03:15:19;7.93;;;3.75;;
81934;SDS011;71405;47.674;-2.050;2024-02-28T03:17:45;6.95;;;3.63;;
81934;SDS011;71405;47.674;-2.050;2024-02-28T03:20:11;7.45;;;3.67;;
81934;SDS011;71405;47.674;-2.050;2024-02-28T03:22:39;7.85;;;3.90;;
81934;SDS011;71405;47.674;-2.050;2024-02-28T03:25:05;7.60;;;3.42;;
81934;SDS011;71405;47.674;-2.050;2024-02-28T03:27:31;6.72;;;3.47;;
81934;SDS011;71405;47.674;-2.050;2024-02-28T03:29:57;7.93;;;3.40;;
81934;SDS011;71405;47.674;-2.050;2024-02-28T03:32:23;6.88;;;3.30;;
81934;SDS011;71405;47.674;-2.050;2024-02-28T03:34:48;6.55;;;3.28;;
81934;SDS011;71405;47.674;-2.050;2024-02-28T03:37:14;7.53;;;3.60;;
81934;SDS011;71405;47.674;-2.050;2024-02-28T03:39:40;6.82;;;3.53;;
81934;SDS011;71405;47.674;-2.050;2024-02-28T03:42:06;7.05;;;3.20;;
81934;SDS011;71405;47.674;-2.050;2024-02-28T03:44:31;6.60;;;3.28;;
81934;SDS011;71405;47.674;-2.050;2024-02-28T03:46:57;6.88;;;3.30;;
81934;SDS011;71405;47.674;-2.050;2024-02-28T03:49:23;6.93;;;3.35;;
81934;SDS011;71405;47.674;-2.050;2024-02-28T03:51:48;6.40;;;3.08;;
81934;SDS011;71405;47.674;-2.050;2024-02-28T03:54:14;6.55;;;3.08;;
81934;SDS011;71405;47.674;-2.050;2024-02-28T03:56:40;6.30;;;2.95;;
81934;SDS011;71405;47.674;-2.050;2024-02-28T03:59:05;6.65;;;3.25;;
81934;SDS011;71405;47.674;-2.050;2024-02-28T04:01:31;7.00;;;3.30;;
81934;SDS011;71405;47.674;-2.050;2024-02-28T04:03:57;6.90;;;2.92;;
81934;SDS011;71405;47.674;-2.050;2024-02-28T04:06:22;6.53;;;3.20;;
81934;SDS011;71405;47.674;-2.050;2024-02-28T04:08:48;7.60;;;3.30;;
81934;SDS011;71405;47.674;-2.050;2024-02-28T04:11:14;7.85;;;3.20;;
81934;SDS011;71405;47.674;-2.050;2024-02-28T04:13:40;6.32;;;3.20;;
81934;SDS011;71405;47.674;-2.050;2024-02-28T04:16:07;6.50;;;3.00;;
81934;SDS011;71405;47.674;-2.050;2024-02-28T04:18:33;5.93;;;3.20;;
81934;SDS011;71405;47.674;-2.050;2024-02-28T04:20:59;5.95;;;3.13;;
81934;SDS011;71405;47.674;-2.050;2024-02-28T04:23:25;6.40;;;2.97;;
81934;SDS011;71405;47.674;-2.050;2024-02-28T04:25:50;7.38;;;3.40;;
81934;SDS011;71405;47.674;-2.050;2024-02-28T04:28:16;7.68;;;3.17;;
81934;SDS011;71405;47.674;-2.050;2024-02-28T04:30:42;7.32;;;3.50;;
81934;SDS011;71405;47.674;-2.050;2024-02-28T04:33:08;6.13;;;3.03;;
81934;SDS011;71405;47.674;-2.050;2024-02-28T04:35:33;6.95;;;3.10;;
81934;SDS011;71405;47.674;-2.050;2024-02-28T04:37:59;6.22;;;2.95;;
81934;SDS011;71405;47.674;-2.050;2024-02-28T04:40:25;6.45;;;2.65;;
81934;SDS011;71405;47.674;-2.050;2024-02-28T04:42:50;5.93;;;2.88;;
81934;SDS011;71405;47.674;-2.050;2024-02-28T04:45:16;5.55;;;2.80;;
81934;SDS011;71405;47.674;-2.050;2024-02-28T04:47:42;5.97;;;2.97;;
81934;SDS011;71405;47.674;-2.050;2024-02-28T04:50:08;6.50;;;3.35;;
81934;SDS011;71405;47.674;-2.050;2024-02-28T04:52:35;6.57;;;3.13;;
81934;SDS011;71405;47.674;-2.050;2024-02-28T04:55:00;5.88;;;3.00;;
81934;SDS011;71405;47.674;-2.050;2024-02-28T04:57:26;6.55;;;2.80;;
81934;SDS011;71405;47.674;-2.050;2024-02-28T04:59:52;5.80;;;3.05;;
81934;SDS011;71405;47.674;-2.050;2024-02-28T05:02:18;6.80;;;2.83;;
81934;SDS011;71405;47.674;-2.050;2024-02-28T05:04:44;6.32;;;3.00;;
81934;SDS011;71405;47.674;-2.050;2024-02-28T05:07:09;6.63;;;2.95;;
81934;SDS011;71405;47.674;-2.050;2024-02-28T05:09:35;5.05;;;2.88;;
81934;SDS011;71405;47.674;-2.050;2024-02-28T05:12:01;5.72;;;2.92;;
81934;SDS011;71405;47.674;-2.050;2024-02-28T05:14:27;6.13;;;2.88;;
81934;SDS011;71405;47.674;-2.050;2024-02-28T05:16:53;6.07;;;2.80;;
81934;SDS011;71405;47.674;-2.050;2024-02-28T05:19:19;5.97;;;2.83;;
81934;SDS011;71405;47.674;-2.050;2024-02-28T05:21:44;6.35;;;3.05;;
81934;SDS011;71405;47.674;-2.050;2024-02-28T05:24:11;6.30;;;2.75;;
81934;SDS011;71405;47.674;-2.050;2024-02-28T05:26:37;6.07;;;3.03;;
81934;SDS011;71405;47.674;-2.050;2024-02-28T05:29:03;6.18;;;3.13;;
81934;SDS011;71405;47.674;-2.050;2024-02-28T05:31:30;6.63;;;2.90;;
81934;SDS011;71405;47.674;-2.050;2024-02-28T05:33:57;5.78;;;2.75;;
81934;SDS011;71405;47.674;-2.050;2024-02-28T05:36:24;6.18;;;2.75;;
81934;SDS011;71405;47.674;-2.050;2024-02-28T05:38:51;4.13;;;2.30;;
81934;SDS011;71405;47.674;-2.050;2024-02-28T05:41:18;5.72;;;2.83;;
81934;SDS011;71405;47.674;-2.050;2024-02-28T05:43:44;5.50;;;2.70;;
81934;SDS011;71405;47.674;-2.050;2024-02-28T05:46:10;6.15;;;2.83;;
81934;SDS011;71405;47.674;-2.050;2024-02-28T05:48:36;5.88;;;2.70;;
81934;SDS011;71405;47.674;-2.050;2024-02-28T05:51:02;6.22;;;2.85;;
81934;SDS011;71405;47.674;-2.050;2024-02-28T05:53:28;11.77;;;6.07;;
81934;SDS011;71405;47.674;-2.050;2024-02-28T05:55:57;6.22;;;2.78;;
81934;SDS011;71405;47.674;-2.050;2024-02-28T05:58:23;6.55;;;3.00;;
81934;SDS011;71405;47.674;-2.050;2024-02-28T06:00:50;7.50;;;2.88;;
81934;SDS011;71405;47.674;-2.050;2024-02-28T06:03:16;6.07;;;2.40;;
81934;SDS011;71405;47.674;-2.050;2024-02-28T06:05:42;5.93;;;2.80;;
81934;SDS011;71405;47.674;-2.050;2024-02-28T06:08:08;5.63;;;2.70;;
81934;SDS011;71405;47.674;-2.050;2024-02-28T06:10:33;6.05;;;2.42;;
81934;SDS011;71405;47.674;-2.050;2024-02-28T06:12:59;8.65;;;2.92;;
81934;SDS011;71405;47.674;-2.050;2024-02-28T06:15:25;6.22;;;2.95;;
81934;SDS011;71405;47.674;-2.050;2024-02-28T06:17:51;6.60;;;2.80;;
81934;SDS011;71405;47.674;-2.050;2024-02-28T06:20:17;7.70;;;3.13;;
81934;SDS011;71405;47.674;-2.050;2024-02-28T06:22:42;7.72;;;3.08;;
81934;SDS011;71405;47.674;-2.050;2024-02-28T06:25:08;10.25;;;3.70;;
81934;SDS011;71405;47.674;-2.050;2024-02-28T06:27:43;15.77;;;3.90;;
81934;SDS011;71405;47.674;-2.050;2024-02-28T06:30:09;20.58;;;8.43;;
81934;SDS011;71405;47.674;-2.050;2024-02-28T06:32:34;9.50;;;4.25;;
81934;SDS011;71405;47.674;-2.050;2024-02-28T06:35:00;6.40;;;2.92;;
81934;SDS011;71405;47.674;-2.050;2024-02-28T06:37:26;5.72;;;2.78;;
81934;SDS011;71405;47.674;-2.050;2024-02-28T06:39:53;6.90;;;3.00;;
81934;SDS011;71405;47.674;-2.050;2024-02-28T06:42:18;6.75;;;2.90;;
81934;SDS011;71405;47.674;-2.050;2024-02-28T06:44:44;16.17;;;6.75;;
81934;SDS011;71405;47.674;-2.050;2024-02-28T06:47:09;9.57;;;3.83;;
81934;SDS011;71405;47.674;-2.050;2024-02-28T06:49:35;6.43;;;2.85;;
81934;SDS011;71405;47.674;-2.050;2024-02-28T06:52:01;9.57;;;3.95;;
81934;SDS011;71405;47.674;-2.050;2024-02-28T06:54:27;9.68;;;4.00;;
81934;SDS011;71405;47.674;-2.050;2024-02-28T06:56:53;6.80;;;2.90;;
81934;SDS011;71405;47.674;-2.050;2024-02-28T06:59:20;13.10;;;4.85;;
81934;SDS011;71405;47.674;-2.050;2024-02-28T07:01:45;9.68;;;4.30;;
81934;SDS011;71405;47.674;-2.050;2024-02-28T07:04:11;9.07;;;4.35;;
81934;SDS011;71405;47.674;-2.050;2024-02-28T07:06:37;16.00;;;6.93;;
81934;SDS011;71405;47.674;-2.050;2024-02-28T07:09:03;10.00;;;3.90;;
81934;SDS011;71405;47.674;-2.050;2024-02-28T07:11:28;9.65;;;4.10;;
81934;SDS011;71405;47.674;-2.050;2024-02-28T07:13:54;6.68;;;2.80;;
81934;SDS011;71405;47.674;-2.050;2024-02-28T07:16:22;13.45;;;4.10;;
81934;SDS011;71405;47.674;-2.050;2024-02-28T07:18:48;63.58;;;17.80;;
81934;SDS011;71405;47.674;-2.050;2024-02-28T07:21:13;28.13;;;8.77;;
81934;SDS011;71405;47.674;-2.050;2024-02-28T07:23:39;35.58;;;10.65;;
81934;SDS011;71405;47.674;-2.050;2024-02-28T07:26:06;26.55;;;7.47;;
81934;SDS011;71405;47.674;-2.050;2024-02-28T07:28:32;30.60;;;8.25;;
81934;SDS011;71405;47.674;-2.050;2024-02-28T07:30:58;22.63;;;7.85;;
81934;SDS011;71405;47.674;-2.050;2024-02-28T07:33:23;23.50;;;8.48;;
81934;SDS011;71405;47.674;-2.050;2024-02-28T07:35:51;27.98;;;8.13;;
81934;SDS011;71405;47.674;-2.050;2024-02-28T07:38:17;22.10;;;7.47;;
81934;SDS011;71405;47.674;-2.050;2024-02-28T07:40:45;24.77;;;7.95;;
81934;SDS011;71405;47.674;-2.050;2024-02-28T07:43:12;20.77;;;6.78;;
81934;SDS011;71405;47.674;-2.050;2024-02-28T07:45:38;22.00;;;7.35;;
81934;SDS011;71405;47.674;-2.050;2024-02-28T07:48:04;17.55;;;6.93;;
81934;SDS011;71405;47.674;-2.050;2024-02-28T07:50:31;21.33;;;6.15;;
81934;SDS011;71405;47.674;-2.050;2024-02-28T07:52:56;16.67;;;6.72;;
81934;SDS011;71405;47.674;-2.050;2024-02-28T07:55:22;19.35;;;6.68;;
81934;SDS011;71405;47.674;-2.050;2024-02-28T07:57:51;22.65;;;7.15;;
81934;SDS011;71405;47.674;-2.050;2024-02-28T08:00:18;17.17;;;6.05;;
81934;SDS011;71405;47.674;-2.050;2024-02-28T08:02:45;16.08;;;5.60;;
81934;SDS011;71405;47.674;-2.050;2024-02-28T08:05:10;17.95;;;6.18;;
81934;SDS011;71405;47.674;-2.050;2024-02-28T08:07:36;17.55;;;6.53;;
81934;SDS011;71405;47.674;-2.050;2024-02-28T08:10:03;16.15;;;6.45;;
81934;SDS011;71405;47.674;-2.050;2024-02-28T08:12:31;14.85;;;6.45;;
81934;SDS011;71405;47.674;-2.050;2024-02-28T08:14:57;15.10;;;5.32;;
81934;SDS011;71405;47.674;-2.050;2024-02-28T08:17:23;13.70;;;5.95;;
81934;SDS011;71405;47.674;-2.050;2024-02-28T08:19:49;15.20;;;5.53;;
81934;SDS011;71405;47.674;-2.050;2024-02-28T08:22:14;12.85;;;5.72;;
81934;SDS011;71405;47.674;-2.050;2024-02-28T08:24:40;16.63;;;6.18;;
81934;SDS011;71405;47.674;-2.050;2024-02-28T08:27:05;16.75;;;5.70;;
81934;SDS011;71405;47.674;-2.050;2024-02-28T08:29:31;13.60;;;5.35;;
81934;SDS011;71405;47.674;-2.050;2024-02-28T08:31:58;14.63;;;5.00;;
81934;SDS011;71405;47.674;-2.050;2024-02-28T08:34:23;15.18;;;6.03;;
81934;SDS011;71405;47.674;-2.050;2024-02-28T08:36:50;13.38;;;5.25;;
81934;SDS011;71405;47.674;-2.050;2024-02-28T08:39:17;11.57;;;5.15;;
81934;SDS011;71405;47.674;-2.050;2024-02-28T08:41:42;10.65;;;5.40;;
81934;SDS011;71405;47.674;-2.050;2024-02-28T08:44:08;12.35;;;5.15;;
81934;SDS011;71405;47.674;-2.050;2024-02-28T08:46:34;12.93;;;5.18;;
81934;SDS011;71405;47.674;-2.050;2024-02-28T08:48:59;12.50;;;5.05;;
81934;SDS011;71405;47.674;-2.050;2024-02-28T08:51:25;12.93;;;5.32;;
81934;SDS011;71405;47.674;-2.050;2024-02-28T08:53:51;11.48;;;5.20;;
81934;SDS011;71405;47.674;-2.050;2024-02-28T08:56:18;13.95;;;5.68;;
81934;SDS011;71405;47.674;-2.050;2024-02-28T08:58:44;11.27;;;4.45;;
81934;SDS011;71405;47.674;-2.050;2024-02-28T09:01:13;12.65;;;4.63;;
81934;SDS011;71405;47.674;-2.050;2024-02-28T09:03:41;10.98;;;4.63;;
81934;SDS011;71405;47.674;-2.050;2024-02-28T09:06:07;10.38;;;4.68;;
81934;SDS011;71405;47.674;-2.050;2024-02-28T09:08:33;9.68;;;4.20;;
81934;SDS011;71405;47.674;-2.050;2024-02-28T09:10:59;10.13;;;4.57;;
81934;SDS011;71405;47.674;-2.050;2024-02-28T09:13:25;9.32;;;4.18;;
81934;SDS011;71405;47.674;-2.050;2024-02-28T09:15:51;9.50;;;3.88;;
81934;SDS011;71405;47.674;-2.050;2024-02-28T09:18:17;11.02;;;4.55;;
81934;SDS011;71405;47.674;-2.050;2024-02-28T09:20:43;11.52;;;4.13;;
81934;SDS011;71405;47.674;-2.050;2024-02-28T09:23:09;8.95;;;3.92;;
81934;SDS011;71405;47.674;-2.050;2024-02-28T09:25:34;11.68;;;4.50;;
81934;SDS011;71405;47.674;-2.050;2024-02-28T09:28:00;9.00;;;3.55;;
81934;SDS011;71405;47.674;-2.050;2024-02-28T09:30:29;8.93;;;3.72;;
81934;SDS011;71405;47.674;-2.050;2024-02-28T09:32:54;11.18;;;3.92;;
81934;SDS011;71405;47.674;-2.050;2024-02-28T09:35:20;8.38;;;3.47;;
81934;SDS011;71405;47.674;-2.050;2024-02-28T09:37:46;8.95;;;3.97;;
81934;SDS011;71405;47.674;-2.050;2024-02-28T09:40:12;10.65;;;4.28;;
81934;SDS011;71405;47.674;-2.050;2024-02-28T09:42:37;11.18;;;3.72;;
81934;SDS011;71405;47.674;-2.050;2024-02-28T09:45:03;10.73;;;3.60;;
81934;SDS011;71405;47.674;-2.050;2024-02-28T09:47:31;11.30;;;4.57;;
81934;SDS011;71405;47.674;-2.050;2024-02-28T09:49:57;9.07;;;3.50;;
81934;SDS011;71405;47.674;-2.050;2024-02-28T09:52:26;10.98;;;3.83;;
81934;SDS011;71405;47.674;-2.050;2024-02-28T09:54:52;9.98;;;4.00;;
81934;SDS011;71405;47.674;-2.050;2024-02-28T09:57:18;8.90;;;3.63;;
81934;SDS011;71405;47.674;-2.050;2024-02-28T09:59:45;8.82;;;3.47;;
81934;SDS011;71405;47.674;-2.050;2024-02-28T10:02:11;8.82;;;3.53;;
81934;SDS011;71405;47.674;-2.050;2024-02-28T10:04:38;9.00;;;3.35;;
81934;SDS011;71405;47.674;-2.050;2024-02-28T10:07:14;7.82;;;3.20;;
81934;SDS011;71405;47.674;-2.050;2024-02-28T10:09:40;9.38;;;3.10;;
81934;SDS011;71405;47.674;-2.050;2024-02-28T10:12:06;6.18;;;3.05;;
81934;SDS011;71405;47.674;-2.050;2024-02-28T10:14:32;8.48;;;3.45;;
81934;SDS011;71405;47.674;-2.050;2024-02-28T10:16:58;7.55;;;3.20;;
81934;SDS011;71405;47.674;-2.050;2024-02-28T10:19:24;8.90;;;3.33;;
81934;SDS011;71405;47.674;-2.050;2024-02-28T10:21:50;7.47;;;3.30;;
81934;SDS011;71405;47.674;-2.050;2024-02-28T10:24:15;7.07;;;3.50;;
81934;SDS011;71405;47.674;-2.050;2024-02-28T10:26:45;7.68;;;2.97;;
81934;SDS011;71405;47.674;-2.050;2024-02-28T10:29:20;6.90;;;3.00;;
81934;SDS011;71405;47.674;-2.050;2024-02-28T10:31:50;6.18;;;2.65;;
81934;SDS011;71405;47.674;-2.050;2024-02-28T10:34:16;9.52;;;3.08;;
81934;SDS011;71405;47.674;-2.050;2024-02-28T10:36:43;6.88;;;2.80;;
81934;SDS011;71405;47.674;-2.050;2024-02-28T10:39:11;7.22;;;3.10;;
81934;SDS011;71405;47.674;-2.050;2024-02-28T10:41:40;6.68;;;2.88;;
81934;SDS011;71405;47.674;-2.050;2024-02-28T10:44:06;7.65;;;3.08;;
81934;SDS011;71405;47.674;-2.050;2024-02-28T10:46:32;6.07;;;2.88;;
81934;SDS011;71405;47.674;-2.050;2024-02-28T10:48:58;7.70;;;2.92;;
81934;SDS011;71405;47.674;-2.050;2024-02-28T10:51:24;6.82;;;2.90;;
81934;SDS011;71405;47.674;-2.050;2024-02-28T10:54:11;7.45;;;2.90;;
81934;SDS011;71405;47.674;-2.050;2024-02-28T10:56:38;7.22;;;2.72;;
81934;SDS011;71405;47.674;-2.050;2024-02-28T10:59:08;7.25;;;2.78;;
81934;SDS011;71405;47.674;-2.050;2024-02-28T11:01:38;8.52;;;3.38;;
81934;SDS011;71405;47.674;-2.050;2024-02-28T11:04:12;6.93;;;2.80;;
81934;SDS011;71405;47.674;-2.050;2024-02-28T11:06:48;5.75;;;2.15;;
81934;SDS011;71405;47.674;-2.050;2024-02-28T11:09:21;7.30;;;3.00;;
81934;SDS011;71405;47.674;-2.050;2024-02-28T11:11:51;6.95;;;3.10;;
81934;SDS011;71405;47.674;-2.050;2024-02-28T11:14:17;6.30;;;2.60;;
81934;SDS011;71405;47.674;-2.050;2024-02-28T11:16:46;6.47;;;2.60;;
81934;SDS011;71405;47.674;-2.050;2024-02-28T11:19:21;5.43;;;2.45;;
81934;SDS011;71405;47.674;-2.050;2024-02-28T11:21:53;5.97;;;2.85;;
81934;SDS011;71405;47.674;-2.050;2024-02-28T11:24:23;6.38;;;2.60;;
81934;SDS011;71405;47.674;-2.050;2024-02-28T11:26:50;6.53;;;2.70;;
81934;SDS011;71405;47.674;-2.050;2024-02-28T11:29:21;9.85;;;2.88;;
81934;SDS011;71405;47.674;-2.050;2024-02-28T11:31:51;5.57;;;2.45;;
81934;SDS011;71405;47.674;-2.050;2024-02-28T11:34:17;7.95;;;2.80;;
81934;SDS011;71405;47.674;-2.050;2024-02-28T11:36:43;6.22;;;2.72;;
81934;SDS011;71405;47.674;-2.050;2024-02-28T11:39:13;6.43;;;2.85;;
81934;SDS011;71405;47.674;-2.050;2024-02-28T11:41:39;11.43;;;2.40;;
81934;SDS011;71405;47.674;-2.050;2024-02-28T11:44:05;6.90;;;2.45;;
81934;SDS011;71405;47.674;-2.050;2024-02-28T11:46:30;7.25;;;2.80;;
81934;SDS011;71405;47.674;-2.050;2024-02-28T11:48:57;10.13;;;2.40;;
81934;SDS011;71405;47.674;-2.050;2024-02-28T11:51:23;9.63;;;2.63;;
81934;SDS011;71405;47.674;-2.050;2024-02-28T11:53:48;9.00;;;3.20;;
81934;SDS011;71405;47.674;-2.050;2024-02-28T11:56:14;9.60;;;2.78;;
81934;SDS011;71405;47.674;-2.050;2024-02-28T11:58:52;9.40;;;2.60;;
81934;SDS011;71405;47.674;-2.050;2024-02-28T12:01:18;6.45;;;2.70;;
81934;SDS011;71405;47.674;-2.050;2024-02-28T12:03:45;6.78;;;2.50;;
81934;SDS011;71405;47.674;-2.050;2024-02-28T12:06:13;5.05;;;2.55;;
81934;SDS011;71405;47.674;-2.050;2024-02-28T12:08:39;7.05;;;2.55;;
81934;SDS011;71405;47.674;-2.050;2024-02-28T12:11:08;7.43;;;2.58;;
81934;SDS011;71405;47.674;-2.050;2024-02-28T12:13:35;6.20;;;2.67;;
81934;SDS011;71405;47.674;-2.050;2024-02-28T12:16:02;7.25;;;3.15;;
81934;SDS011;71405;47.674;-2.050;2024-02-28T12:18:29;6.25;;;2.65;;
81934;SDS011;71405;47.674;-2.050;2024-02-28T12:20:54;5.55;;;2.45;;
81934;SDS011;71405;47.674;-2.050;2024-02-28T12:23:20;6.88;;;2.88;;
81934;SDS011;71405;47.674;-2.050;2024-02-28T12:25:46;7.00;;;2.80;;
81934;SDS011;71405;47.674;-2.050;2024-02-28T12:28:12;6.03;;;2.33;;
81934;SDS011;71405;47.674;-2.050;2024-02-28T12:30:41;5.95;;;2.30;;
81934;SDS011;71405;47.674;-2.050;2024-02-28T12:33:08;6.15;;;2.50;;
81934;SDS011;71405;47.674;-2.050;2024-02-28T12:35:34;7.47;;;2.80;;
81934;SDS011;71405;47.674;-2.050;2024-02-28T12:38:00;6.57;;;2.65;;
81934;SDS011;71405;47.674;-2.050;2024-02-28T12:40:25;6.25;;;2.47;;
81934;SDS011;71405;47.674;-2.050;2024-02-28T12:42:51;7.32;;;2.72;;
81934;SDS011;71405;47.674;-2.050;2024-02-28T12:45:16;4.93;;;2.40;;
81934;SDS011;71405;47.674;-2.050;2024-02-28T12:47:43;8.73;;;3.63;;
81934;SDS011;71405;47.674;-2.050;2024-02-28T12:50:08;11.18;;;2.97;;
81934;SDS011;71405;47.674;-2.050;2024-02-28T12:52:35;8.10;;;2.95;;
81934;SDS011;71405;47.674;-2.050;2024-02-28T12:55:01;6.53;;;2.80;;
81934;SDS011;71405;47.674;-2.050;2024-02-28T12:57:27;6.80;;;2.80;;
81934;SDS011;71405;47.674;-2.050;2024-02-28T12:59:53;7.45;;;2.60;;
81934;SDS011;71405;47.674;-2.050;2024-02-28T13:02:19;6.22;;;2.60;;
81934;SDS011;71405;47.674;-2.050;2024-02-28T13:04:45;5.55;;;2.40;;
81934;SDS011;71405;47.674;-2.050;2024-02-28T13:07:11;6.45;;;2.42;;
81934;SDS011;71405;47.674;-2.050;2024-02-28T13:09:37;6.50;;;2.92;;
81934;SDS011;71405;47.674;-2.050;2024-02-28T13:12:03;5.85;;;2.53;;
81934;SDS011;71405;47.674;-2.050;2024-02-28T13:14:29;5.95;;;2.40;;
81934;SDS011;71405;47.674;-2.050;2024-02-28T13:16:55;5.35;;;2.55;;
81934;SDS011;71405;47.674;-2.050;2024-02-28T13:19:21;5.10;;;2.50;;
81934;SDS011;71405;47.674;-2.050;2024-02-28T13:21:47;5.13;;;2.40;;
81934;SDS011;71405;47.674;-2.050;2024-02-28T13:24:12;6.72;;;2.90;;
81934;SDS011;71405;47.674;-2.050;2024-02-28T13:26:40;6.03;;;2.50;;
81934;SDS011;71405;47.674;-2.050;2024-02-28T13:29:06;5.10;;;2.53;;
81934;SDS011;71405;47.674;-2.050;2024-02-28T13:31:32;8.23;;;2.58;;
81934;SDS011;71405;47.674;-2.050;2024-02-28T13:33:59;5.78;;;2.53;;
81934;SDS011;71405;47.674;-2.050;2024-02-28T13:36:25;4.30;;;2.28;;
81934;SDS011;71405;47.674;-2.050;2024-02-28T13:38:51;5.65;;;2.55;;
81934;SDS011;71405;47.674;-2.050;2024-02-28T13:41:17;5.40;;;2.60;;
81934;SDS011;71405;47.674;-2.050;2024-02-28T13:43:42;5.10;;;2.70;;
81934;SDS011;71405;47.674;-2.050;2024-02-28T13:46:08;5.22;;;2.30;;
81934;SDS011;71405;47.674;-2.050;2024-02-28T13:48:35;4.53;;;2.15;;
81934;SDS011;71405;47.674;-2.050;2024-02-28T13:51:00;5.38;;;2.65;;
81934;SDS011;71405;47.674;-2.050;2024-02-28T13:53:29;5.63;;;2.40;;
81934;SDS011;71405;47.674;-2.050;2024-02-28T13:55:55;5.45;;;2.40;;
81934;SDS011;71405;47.674;-2.050;2024-02-28T13:58:20;6.97;;;2.67;;
81934;SDS011;71405;47.674;-2.050;2024-02-28T14:00:46;5.22;;;2.25;;
81934;SDS011;71405;47.674;-2.050;2024-02-28T14:03:12;4.80;;;2.25;;
81934;SDS011;71405;47.674;-2.050;2024-02-28T14:05:38;5.53;;;2.50;;
81934;SDS011;71405;47.674;-2.050;2024-02-28T14:08:04;5.38;;;2.58;;
81934;SDS011;71405;47.674;-2.050;2024-02-28T14:10:33;4.60;;;2.58;;
81934;SDS011;71405;47.674;-2.050;2024-02-28T14:12:59;5.22;;;2.60;;
81934;SDS011;71405;47.674;-2.050;2024-02-28T14:15:25;4.88;;;2.40;;
81934;SDS011;71405;47.674;-2.050;2024-02-28T14:17:51;4.57;;;2.38;;
81934;SDS011;71405;47.674;-2.050;2024-02-28T14:20:17;5.32;;;2.38;;
81934;SDS011;71405;47.674;-2.050;2024-02-28T14:22:43;5.13;;;2.72;;
81934;SDS011;71405;47.674;-2.050;2024-02-28T14:25:10;4.82;;;2.30;;